Farrow Terrace, South Carolina
Current Conditions -  °F | °C
As of 8:53 PM on Friday 31 Oct 2014 (Local Time) from KCUB Reporting Station
Overcast Overcast  
Wind Chill: 58°   Ceiling: 8000
Heat Index: 58°   Visibility: 10mi
Dew Point: 48°   Wind: 0mph
Humidity: 70%   Direction: NA
Pressure: 29.8"   Gusts: NA
Location:  34.1179°N, 81.0612°W
Report Text: KCUB 010053Z AUTO 00000KT 10SM FEW055 OVC080 14/09 A2980 RMK AO2 SLP088 T01440089
Loading
Personal Weather Stations






























Interactive Weather Map
Tropical Storm Tracking
New forecast layout! Learn more

10-Day Weather Forecast

Advertisements
Track Severe Weather on mobile